Time;durP1;ratioP1;P1;durP2;ratioP2;P2;SDS_P1;SDS_P2;PMS_P1;PMS_P2;Temp;Humidity;BMP_temperature;BMP_pressure;BME280_temperature;BME280_humidity;BME280_pressure;Samples;Min_cycle;Max_cycle;Signal;HPM_P1;HPM_P2
2021/01/26 00:00:21;;;;;;;1.67;0.80;;;;;;;-144.01;100.00;62166.59;5075175;28;20048;-46
2021/01/26 00:02:49;;;;;;;1.63;0.90;;;;;;;-144.01;100.00;62166.59;5071308;28;20037;-46
2021/01/26 00:05:16;;;;;;;1.77;0.80;;;;;;;-144.01;100.00;62166.59;5057883;28;20490;-46
2021/01/26 00:07:44;;;;;;;2.30;0.80;;;;;;;-144.01;100.00;62166.59;5064350;28;20055;-46
2021/01/26 00:10:12;;;;;;;1.98;0.70;;;;;;;-144.01;100.00;62166.59;5077566;28;20056;-45
2021/01/26 00:12:39;;;;;;;2.13;0.85;;;;;;;-144.01;100.00;62166.59;5075725;28;20466;-45
2021/01/26 00:15:12;;;;;;;2.25;1.20;;;;;;;-144.01;100.00;62166.59;5071846;28;20448;-68
2021/01/26 00:17:39;;;;;;;3.47;0.80;;;;;;;-144.01;100.00;62166.59;5074039;28;20060;-48
2021/01/26 00:20:11;;;;;;;2.40;1.00;;;;;;;-144.01;100.00;62166.59;5072631;28;20040;-45
2021/01/26 00:22:39;;;;;;;2.90;1.00;;;;;;;-144.01;100.00;62166.59;5077583;28;20052;-46
2021/01/26 00:25:09;;;;;;;1.65;0.90;;;;;;;-144.01;100.00;62166.59;5060455;28;20061;-44
2021/01/26 00:27:36;;;;;;;1.77;0.68;;;;;;;-144.01;100.00;62166.59;5073988;28;20052;-66
2021/01/26 00:30:07;;;;;;;2.00;1.00;;;;;;;-144.01;100.00;62166.59;5057273;28;20071;-46
2021/01/26 00:32:34;;;;;;;2.00;0.80;;;;;;;-144.01;100.00;62166.59;5065597;28;20055;-47
2021/01/26 00:35:01;;;;;;;4.70;1.02;;;;;;;-144.01;100.00;62166.59;5077402;28;20055;-45
2021/01/26 00:37:29;;;;;;;2.45;1.00;;;;;;;-144.01;100.00;62166.59;5062885;28;20045;-46
2021/01/26 00:39:56;;;;;;;2.40;0.90;;;;;;;-144.01;100.00;62166.59;5076909;28;20048;-46
2021/01/26 00:42:24;;;;;;;2.40;0.80;;;;;;;-144.01;100.00;62166.59;5069475;28;20048;-45
2021/01/26 00:44:51;;;;;;;4.13;2.10;;;;;;;-144.01;100.00;62166.59;5072842;28;20052;-69
2021/01/26 00:47:18;;;;;;;1.80;1.10;;;;;;;-144.01;100.00;62166.59;5057092;28;20049;-68
2021/01/26 00:49:46;;;;;;;2.47;0.90;;;;;;;-144.01;100.00;62166.59;5069666;28;20114;-64
2021/01/26 00:52:14;;;;;;;2.03;0.90;;;;;;;-144.01;100.00;62166.59;5076886;28;20052;-46
2021/01/26 00:54:42;;;;;;;2.05;1.05;;;;;;;-144.01;100.00;62166.59;5072222;28;20045;-45
2021/01/26 00:57:09;;;;;;;1.80;0.80;;;;;;;-144.01;100.00;62166.59;5075762;28;20362;-59
2021/01/26 00:59:36;;;;;;;1.70;0.68;;;;;;;-144.01;100.00;62166.59;5074297;28;20044;-56
2021/01/26 01:02:04;;;;;;;2.88;0.90;;;;;;;-144.01;100.00;62166.59;5055549;28;20041;-45
2021/01/26 01:04:31;;;;;;;2.25;0.70;;;;;;;-144.01;100.00;62166.59;5058063;28;20052;-48
2021/01/26 01:06:58;;;;;;;3.38;0.95;;;;;;;-144.01;100.00;62166.59;5056578;28;20044;-48
2021/01/26 01:09:26;;;;;;;2.03;0.93;;;;;;;-144.01;100.00;62166.59;5072061;28;20048;-48
2021/01/26 01:11:53;;;;;;;3.38;1.02;;;;;;;-144.01;100.00;62166.59;5058469;28;20053;-46
2021/01/26 01:14:20;;;;;;;1.42;0.77;;;;;;;-144.01;100.00;62166.59;5065278;28;20049;-49
2021/01/26 01:16:47;;;;;;;3.40;0.90;;;;;;;-144.01;100.00;62166.59;5056505;28;20052;-47
2021/01/26 01:19:14;;;;;;;2.17;0.90;;;;;;;-144.01;100.00;62166.59;5061385;28;20045;-47
2021/01/26 01:21:41;;;;;;;1.58;0.80;;;;;;;-144.01;100.00;62166.59;5074848;28;20056;-45
2021/01/26 01:24:09;;;;;;;3.05;1.10;;;;;;;-144.01;100.00;62166.59;5061550;28;20041;-45
2021/01/26 01:26:37;;;;;;;1.50;0.63;;;;;;;-144.01;100.00;62166.59;5066357;28;20051;-45
2021/01/26 01:29:04;;;;;;;1.13;0.68;;;;;;;-144.01;100.00;62166.59;5058429;28;20052;-48
2021/01/26 01:31:31;;;;;;;2.03;0.80;;;;;;;-144.01;100.00;62166.59;5056984;28;20349;-47
2021/01/26 01:33:58;;;;;;;1.75;0.73;;;;;;;-144.01;100.00;62166.59;5075483;28;20040;-47
2021/01/26 01:36:25;;;;;;;1.80;0.70;;;;;;;-144.01;100.00;62166.59;5064660;28;20353;-47
2021/01/26 01:38:52;;;;;;;2.22;0.80;;;;;;;-144.01;100.00;62166.59;5055900;28;20048;-45
2021/01/26 01:41:20;;;;;;;1.23;0.50;;;;;;;-144.01;100.00;62166.59;5055771;28;20065;-46
2021/01/26 01:43:50;;;;;;;2.25;0.63;;;;;;;-144.01;100.00;62166.59;5060305;28;20053;-45
2021/01/26 01:46:21;;;;;;;1.67;0.70;;;;;;;-144.01;100.00;62166.59;5055851;28;20048;-45
2021/01/26 01:48:49;;;;;;;1.50;0.68;;;;;;;-144.01;100.00;62166.59;5054681;28;20371;-46
2021/01/26 01:51:22;;;;;;;1.58;0.45;;;;;;;-144.01;100.00;62166.59;5069263;28;20431;-45
2021/01/26 01:54:06;;;;;;;1.50;0.60;;;;;;;-144.01;100.00;62166.59;5067897;28;20045;-46
2021/01/26 01:56:39;;;;;;;1.75;0.85;;;;;;;-144.01;100.00;62166.59;5070106;28;20451;-45
2021/01/26 01:59:13;;;;;;;1.90;0.70;;;;;;;-144.01;100.00;62166.59;5071662;28;20056;-47
2021/01/26 02:01:41;;;;;;;1.50;0.55;;;;;;;-144.01;100.00;62166.59;5064333;28;20053;-46
2021/01/26 02:04:12;;;;;;;2.50;0.90;;;;;;;-144.01;100.00;62166.59;5069970;28;20041;-44
2021/01/26 02:06:42;;;;;;;1.25;0.77;;;;;;;-144.01;100.00;62166.59;5068971;28;20364;-46
2021/01/26 02:09:19;;;;;;;1.48;0.75;;;;;;;-144.01;100.00;62166.59;5063608;28;20052;-46
2021/01/26 02:11:47;;;;;;;2.33;0.50;;;;;;;-144.01;100.00;62166.59;5075225;28;20049;-47
2021/01/26 02:14:15;;;;;;;4.95;1.08;;;;;;;-144.01;100.00;62166.59;5062492;28;20056;-47
2021/01/26 02:17:16;;;;;;;2.55;0.70;;;;;;;-144.01;100.00;62166.59;5054771;28;20053;-45
2021/01/26 02:20:20;;;;;;;2.40;0.73;;;;;;;-144.01;100.00;62166.59;5056802;28;20359;-46
2021/01/26 02:23:02;;;;;;;2.53;1.27;;;;;;;-144.01;100.00;62166.59;5062834;28;20056;-45
2021/01/26 02:25:32;;;;;;;3.23;1.13;;;;;;;-144.01;100.00;62166.59;5056212;28;20056;-48
2021/01/26 02:28:02;;;;;;;1.77;0.60;;;;;;;-144.01;100.00;62166.59;5058694;28;20044;-45
2021/01/26 02:31:00;;;;;;;6.00;1.48;;;;;;;-144.01;100.00;62166.59;5068296;28;20057;-46
2021/01/26 02:34:06;;;;;;;3.30;1.30;;;;;;;-144.01;100.00;62166.59;5058271;28;20075;-56
2021/01/26 02:36:54;;;;;;;11.70;0.90;;;;;;;-144.01;100.00;62166.59;5049348;28;20111;-48
2021/01/26 02:39:34;;;;;;;1.30;0.68;;;;;;;-144.01;100.00;62166.59;5062028;28;20041;-45
2021/01/26 02:42:27;;;;;;;1.58;0.70;;;;;;;-144.01;100.00;62166.59;5068858;28;20045;-46
2021/01/26 02:45:06;;;;;;;2.67;0.60;;;;;;;-144.01;100.00;62166.59;5071537;28;20045;-51
2021/01/26 02:47:42;;;;;;;3.72;0.70;;;;;;;-144.01;100.00;62166.59;5073547;28;20048;-48
2021/01/26 02:50:15;;;;;;;2.92;0.80;;;;;;;-144.01;100.00;62166.59;5064717;28;20051;-47
2021/01/26 02:53:03;;;;;;;2.88;0.73;;;;;;;-144.01;100.00;62166.59;5058736;28;20037;-45
2021/01/26 02:55:39;;;;;;;1.80;0.80;;;;;;;-144.01;100.00;62166.59;5055005;28;20447;-47
2021/01/26 02:58:11;;;;;;;2.17;0.60;;;;;;;-144.01;100.00;62166.59;5054776;28;20470;-47
2021/01/26 03:00:39;;;;;;;3.67;0.80;;;;;;;-144.01;100.00;62166.59;5053935;28;20044;-46
2021/01/26 03:03:24;;;;;;;2.28;0.60;;;;;;;-144.01;100.00;62166.59;5054642;28;20057;-68
2021/01/26 03:06:00;;;;;;;2.90;0.70;;;;;;;-144.01;100.00;62166.59;5058111;28;20068;-49
2021/01/26 03:08:38;;;;;;;1.63;0.60;;;;;;;-144.01;100.00;62166.59;5066028;28;20471;-52
2021/01/26 03:11:12;;;;;;;2.53;1.00;;;;;;;-144.01;100.00;62166.59;5078005;28;20044;-46
2021/01/26 03:13:42;;;;;;;1.70;0.73;;;;;;;-144.01;100.00;62166.59;5068631;28;20036;-50
2021/01/26 03:16:12;;;;;;;2.50;0.93;;;;;;;-144.01;100.00;62166.59;5076270;28;20055;-47
2021/01/26 03:18:48;;;;;;;2.10;0.70;;;;;;;-144.01;100.00;62166.59;5057760;28;20049;-61
2021/01/26 03:21:17;;;;;;;3.78;0.90;;;;;;;-144.01;100.00;62166.59;5072169;28;20048;-47
2021/01/26 03:23:48;;;;;;;2.13;0.90;;;;;;;-144.01;100.00;62166.59;5078400;28;20051;-47
2021/01/26 03:26:21;;;;;;;0.95;0.55;;;;;;;-144.01;100.00;62166.59;5060575;28;20049;-46
2021/01/26 03:28:56;;;;;;;1.75;0.60;;;;;;;-144.01;100.00;62166.59;5058472;28;20049;-48
2021/01/26 03:31:47;;;;;;;2.05;0.70;;;;;;;-144.01;100.00;62166.59;5057671;28;20052;-48
2021/01/26 03:34:14;;;;;;;1.88;0.63;;;;;;;-144.01;100.00;62166.59;5103884;28;20554;-46
2021/01/26 03:36:41;;;;;;;2.25;0.88;;;;;;;-144.01;100.00;62166.59;5077130;28;20052;-53
2021/01/26 03:39:09;;;;;;;2.55;0.85;;;;;;;-144.01;100.00;62166.59;5078375;28;20056;-47
2021/01/26 03:41:36;;;;;;;2.80;0.80;;;;;;;-144.01;100.00;62166.59;5078071;28;20061;-47
2021/01/26 03:44:05;;;;;;;4.38;1.08;;;;;;;-144.01;100.00;62166.59;5076627;28;20050;-44
2021/01/26 03:46:41;;;;;;;3.03;0.80;;;;;;;-144.01;100.00;62166.59;5062492;28;20051;-47
2021/01/26 03:49:11;;;;;;;2.30;0.90;;;;;;;-144.01;100.00;62166.59;5058112;28;20045;-50
2021/01/26 03:51:56;;;;;;;2.40;0.80;;;;;;;-144.01;100.00;62166.59;5058336;28;20403;-48
2021/01/26 03:54:38;;;;;;;2.08;0.60;;;;;;;-144.01;100.00;62166.59;5062008;28;20047;-49
2021/01/26 03:57:29;;;;;;;2.10;0.90;;;;;;;-144.01;100.00;62166.59;5057021;28;20049;-48
2021/01/26 04:00:28;;;;;;;2.20;0.70;;;;;;;-144.01;100.00;62166.59;5057129;28;20045;-45
2021/01/26 04:03:14;;;;;;;3.47;0.93;;;;;;;-144.01;100.00;62166.59;5070017;28;20063;-47
2021/01/26 04:05:56;;;;;;;2.03;0.88;;;;;;;-144.01;100.00;62166.59;5063923;28;20049;-47
2021/01/26 04:08:39;;;;;;;1.23;0.60;;;;;;;-144.01;100.00;62166.59;5059419;28;20059;-46
2021/01/26 04:11:09;;;;;;;1.65;0.80;;;;;;;-144.01;100.00;62166.59;5056845;28;20041;-48
2021/01/26 04:13:51;;;;;;;3.35;0.70;;;;;;;-144.01;100.00;62166.59;5063032;28;20082;-47
2021/01/26 04:16:20;;;;;;;1.80;0.85;;;;;;;-144.01;100.00;62166.59;5056952;28;20049;-47
2021/01/26 04:18:49;;;;;;;4.18;1.00;;;;;;;-144.01;100.00;62166.59;5056415;28;20056;-47
2021/01/26 04:21:17;;;;;;;2.20;0.80;;;;;;;-144.01;100.00;62166.59;5056702;28;20045;-48
2021/01/26 04:23:44;;;;;;;2.88;0.70;;;;;;;-144.01;100.00;62166.59;5059061;28;20056;-66
2021/01/26 04:26:17;;;;;;;1.90;0.88;;;;;;;-144.01;100.00;62166.59;5076555;28;20048;-53
2021/01/26 04:28:49;;;;;;;3.13;0.90;;;;;;;-144.01;100.00;62166.59;5058787;28;20045;-47
2021/01/26 04:31:18;;;;;;;3.33;1.80;;;;;;;-144.01;100.00;62166.59;5057502;28;20048;-48
2021/01/26 04:33:46;;;;;;;3.72;2.40;;;;;;;-144.01;100.00;62166.59;5060153;28;20060;-49
2021/01/26 04:36:16;;;;;;;3.85;2.10;;;;;;;-144.01;100.00;62166.59;5059870;28;20387;-52
2021/01/26 04:38:43;;;;;;;3.13;1.33;;;;;;;-144.01;100.00;62166.59;5076652;28;20040;-47
2021/01/26 04:41:24;;;;;;;3.85;2.08;;;;;;;-144.01;100.00;62166.59;5059905;28;20478;-50
2021/01/26 04:43:59;;;;;;;5.50;2.60;;;;;;;-144.01;100.00;62166.59;5064137;28;20065;-45
2021/01/26 04:46:43;;;;;;;4.78;2.45;;;;;;;-144.01;100.00;62166.59;5077129;28;20048;-47
2021/01/26 04:49:31;;;;;;;6.57;3.40;;;;;;;-144.01;100.00;62166.59;5062603;28;20049;-45
2021/01/26 04:52:12;;;;;;;6.78;4.28;;;;;;;-144.01;100.00;62166.59;5055965;28;20056;-47
2021/01/26 04:54:51;;;;;;;8.27;5.65;;;;;;;-144.01;100.00;62166.59;5066689;28;20044;-48
2021/01/26 04:57:40;;;;;;;9.90;5.25;;;;;;;-144.01;100.00;62166.59;5063919;28;20049;-47
2021/01/26 05:00:28;;;;;;;11.00;5.70;;;;;;;-144.01;100.00;62166.59;5056745;28;20033;-47
2021/01/26 05:02:59;;;;;;;9.15;6.00;;;;;;;-144.01;100.00;62166.59;5056855;28;20052;-60
2021/01/26 05:05:26;;;;;;;7.93;5.35;;;;;;;-144.01;100.00;62166.59;5064271;28;20056;-46
2021/01/26 05:07:59;;;;;;;7.22;5.28;;;;;;;-144.01;100.00;62166.59;5067927;28;20455;-45
2021/01/26 05:10:40;;;;;;;7.20;5.13;;;;;;;-144.01;100.00;62166.59;5061475;28;20055;-46
2021/01/26 05:13:36;;;;;;;7.28;4.38;;;;;;;-144.01;100.00;62166.59;5055267;28;20056;-52
2021/01/26 05:16:11;;;;;;;6.78;4.82;;;;;;;-144.01;100.00;62166.59;5056857;28;20055;-44
2021/01/26 05:18:48;;;;;;;8.25;4.43;;;;;;;-144.01;100.00;62166.59;5075640;28;20052;-57
2021/01/26 05:21:29;;;;;;;6.00;4.30;;;;;;;-144.01;100.00;62166.59;5067938;28;20045;-44
2021/01/26 05:24:02;;;;;;;6.95;4.13;;;;;;;-144.01;100.00;62166.59;5058969;28;20063;-53
2021/01/26 05:26:29;;;;;;;8.25;4.60;;;;;;;-144.01;100.00;62166.59;5056659;28;20049;-58
2021/01/26 05:28:57;;;;;;;7.45;3.85;;;;;;;-144.01;100.00;62166.59;5056104;28;20447;-46
2021/01/26 05:31:28;;;;;;;2.67;1.90;;;;;;;-144.01;100.00;62166.59;5056434;28;20045;-47
2021/01/26 05:34:07;;;;;;;3.85;1.40;;;;;;;-144.01;100.00;62166.59;5057325;28;20056;-52
2021/01/26 05:36:35;;;;;;;2.17;1.35;;;;;;;-144.01;100.00;62166.59;5075313;28;20057;-44
2021/01/26 05:39:05;;;;;;;3.75;1.65;;;;;;;-144.01;100.00;62166.59;5075019;28;20371;-46
2021/01/26 05:41:32;;;;;;;3.15;1.65;;;;;;;-144.01;100.00;62166.59;5075953;28;20053;-45
2021/01/26 05:44:00;;;;;;;3.58;1.60;;;;;;;-144.01;100.00;62166.59;5070024;28;20041;-45
2021/01/26 05:46:35;;;;;;;4.18;1.98;;;;;;;-144.01;100.00;62166.59;5074938;28;20044;-45
2021/01/26 05:49:02;;;;;;;3.25;1.50;;;;;;;-144.01;100.00;62166.59;5075861;28;20048;-44
2021/01/26 05:51:29;;;;;;;1.98;1.17;;;;;;;-144.01;100.00;62166.59;5075902;28;20049;-44
2021/01/26 05:54:02;;;;;;;1.83;1.00;;;;;;;-144.01;100.00;62166.59;5075539;28;20048;-44
2021/01/26 05:56:30;;;;;;;2.65;1.20;;;;;;;-144.01;100.00;62166.59;5074896;28;20045;-45
2021/01/26 05:58:57;;;;;;;2.65;1.30;;;;;;;-144.01;100.00;62166.59;5075659;28;20051;-45
2021/01/26 06:01:28;;;;;;;2.17;1.27;;;;;;;-144.01;100.00;62166.59;5074872;28;20367;-45
2021/01/26 06:04:14;;;;;;;2.80;1.10;;;;;;;-144.01;100.00;62166.59;5075364;28;20386;-44
2021/01/26 06:06:55;;;;;;;1.50;0.90;;;;;;;-144.01;100.00;62166.59;5075698;28;20135;-45
2021/01/26 06:09:31;;;;;;;1.35;0.88;;;;;;;-144.01;100.00;62166.59;5075606;28;20055;-45
2021/01/26 06:12:26;;;;;;;3.60;1.20;;;;;;;-144.01;100.00;62166.59;5075527;28;20055;-44
2021/01/26 06:14:57;;;;;;;2.20;1.10;;;;;;;-144.01;100.00;62166.59;5073621;28;20036;-44
2021/01/26 06:17:27;;;;;;;1.85;1.05;;;;;;;-144.01;100.00;62166.59;5075421;28;20052;-46
2021/01/26 06:20:06;;;;;;;1.80;1.00;;;;;;;-144.01;100.00;62166.59;5075492;28;20052;-44
2021/01/26 06:22:34;;;;;;;2.35;1.25;;;;;;;-144.01;100.00;62166.59;5074414;28;20048;-44
2021/01/26 06:25:10;;;;;;;3.08;1.58;;;;;;;-144.01;100.00;62166.59;5075189;28;20045;-45
2021/01/26 06:27:59;;;;;;;2.40;1.40;;;;;;;-144.01;100.00;62166.59;5075232;28;20044;-45
2021/01/26 06:30:51;;;;;;;1.70;1.23;;;;;;;-144.01;100.00;62166.59;5075347;28;20051;-45
2021/01/26 06:33:27;;;;;;;1.52;0.80;;;;;;;-144.01;100.00;62166.59;5074480;28;20075;-45
2021/01/26 06:36:03;;;;;;;1.20;0.80;;;;;;;-144.01;100.00;62166.59;5075449;28;20052;-61
2021/01/26 06:38:43;;;;;;;1.88;0.77;;;;;;;-144.01;100.00;62166.59;5074166;28;20048;-57
2021/01/26 06:41:13;;;;;;;1.52;0.80;;;;;;;-144.01;100.00;62166.59;5075364;28;20057;-46
2021/01/26 06:44:05;;;;;;;2.60;1.10;;;;;;;-144.01;100.00;62166.59;5074763;28;20055;-45
2021/01/26 06:47:01;;;;;;;1.30;0.75;;;;;;;-144.01;100.00;62166.59;5059845;28;20045;-47
2021/01/26 06:49:51;;;;;;;3.03;0.90;;;;;;;-144.01;100.00;62166.59;5054177;28;20391;-46
2021/01/26 06:52:36;;;;;;;2.20;0.95;;;;;;;-144.01;100.00;62166.59;5055110;28;20383;-45
2021/01/26 06:55:24;;;;;;;2.22;1.13;;;;;;;-144.01;100.00;62166.59;5073271;28;20052;-46
2021/01/26 06:58:15;;;;;;;2.15;1.05;;;;;;;-144.01;100.00;62166.59;5074901;28;20044;-46
2021/01/26 07:00:51;;;;;;;1.65;1.10;;;;;;;-144.01;100.00;62166.59;5075223;28;20048;-45
2021/01/26 07:03:52;;;;;;;1.60;1.00;;;;;;;-144.01;100.00;62166.59;5074825;28;20056;-46
2021/01/26 07:06:44;;;;;;;1.00;0.60;;;;;;;-144.01;100.00;62166.59;5074970;28;20455;-46
2021/01/26 07:09:23;;;;;;;2.72;1.30;;;;;;;-144.01;100.00;62166.59;5073880;28;20053;-45
2021/01/26 07:12:21;;;;;;;2.20;1.13;;;;;;;-144.01;100.00;62166.59;5075003;28;20406;-45
2021/01/26 07:15:06;;;;;;;1.10;0.70;;;;;;;-144.01;100.00;62166.59;5074097;28;20040;-45
2021/01/26 07:17:58;;;;;;;1.42;0.77;;;;;;;-144.01;100.00;62166.59;5074839;28;20071;-45
2021/01/26 07:20:34;;;;;;;2.72;1.20;;;;;;;-144.01;100.00;62166.59;5074991;28;20053;-44
2021/01/26 07:23:14;;;;;;;2.20;0.98;;;;;;;-144.01;100.00;62166.59;5057435;28;20056;-44
2021/01/26 07:26:00;;;;;;;3.33;1.35;;;;;;;-144.01;100.00;62166.59;5070215;28;20367;-45
2021/01/26 07:28:58;;;;;;;3.90;1.27;;;;;;;-144.01;100.00;62166.59;5054647;28;20053;-44
2021/01/26 07:31:28;;;;;;;2.95;1.48;;;;;;;-144.01;100.00;62166.59;5054775;28;20041;-44
2021/01/26 07:34:11;;;;;;;3.50;1.60;;;;;;;-144.01;100.00;62166.59;5061207;28;20048;-44
2021/01/26 07:36:47;;;;;;;1.52;0.93;;;;;;;-144.01;100.00;62166.59;5074787;28;20045;-44
2021/01/26 07:39:27;;;;;;;1.88;0.90;;;;;;;-144.01;100.00;62166.59;5072058;28;20044;-45
2021/01/26 07:41:55;;;;;;;4.13;1.05;;;;;;;-144.01;100.00;62166.59;5055343;28;20057;-44
2021/01/26 07:44:38;;;;;;;3.42;2.05;;;;;;;-144.01;100.00;62166.59;5066609;28;20371;-45
2021/01/26 07:47:34;;;;;;;3.50;2.10;;;;;;;-144.01;100.00;62166.59;5074532;28;20056;-45
2021/01/26 07:50:16;;;;;;;3.03;1.73;;;;;;;-144.01;100.00;62166.59;5073581;28;20051;-44
2021/01/26 07:52:46;;;;;;;2.83;1.52;;;;;;;-144.01;100.00;62166.59;5077260;28;20053;-45
2021/01/26 07:55:15;;;;;;;2.30;1.65;;;;;;;-144.01;100.00;62166.59;5078231;28;20371;-45
2021/01/26 07:57:57;;;;;;;3.40;1.90;;;;;;;-144.01;100.00;62166.59;5077033;28;20048;-45
2021/01/26 08:00:28;;;;;;;2.55;2.00;;;;;;;-144.01;100.00;62166.59;5077863;28;20046;-44
2021/01/26 08:02:56;;;;;;;3.35;2.20;;;;;;;-144.01;100.00;62166.59;5078029;28;20048;-45
2021/01/26 08:05:44;;;;;;;4.07;1.58;;;;;;;-144.01;100.00;62166.59;5076899;28;20436;-45
2021/01/26 08:08:35;;;;;;;3.72;2.67;;;;;;;-144.01;100.00;62166.59;5077688;28;20075;-44
2021/01/26 08:11:06;;;;;;;3.25;2.25;;;;;;;-144.01;100.00;62166.59;5059977;28;20048;-44
2021/01/26 08:13:35;;;;;;;3.58;2.30;;;;;;;-144.01;100.00;62166.59;5076533;28;20044;-45
2021/01/26 08:16:21;;;;;;;3.95;2.53;;;;;;;-144.01;100.00;62166.59;5076736;28;20051;-44
2021/01/26 08:18:49;;;;;;;2.80;2.17;;;;;;;-144.01;100.00;62166.59;5077588;28;20463;-44
2021/01/26 08:21:42;;;;;;;3.08;1.65;;;;;;;-144.01;100.00;62166.59;5077468;28;20051;-44
2021/01/26 08:24:30;;;;;;;3.53;1.65;;;;;;;-144.01;100.00;62166.59;5076613;28;20374;-43
2021/01/26 08:27:25;;;;;;;1.85;1.38;;;;;;;-144.01;100.00;62166.59;5076439;28;20053;-44
2021/01/26 08:30:05;;;;;;;2.30;1.30;;;;;;;-144.01;100.00;62166.59;5076914;28;20055;-44
2021/01/26 08:32:32;;;;;;;3.42;1.90;;;;;;;-144.01;100.00;62166.59;5076558;28;20048;-45
2021/01/26 08:35:09;;;;;;;2.65;1.92;;;;;;;-144.01;100.00;62166.59;5066240;28;20067;-44
2021/01/26 08:37:50;;;;;;;3.10;1.85;;;;;;;-144.01;100.00;62166.59;5056437;28;20045;-44
2021/01/26 08:40:17;;;;;;;3.55;1.20;;;;;;;-144.01;100.00;62166.59;5065012;28;20366;-45
2021/01/26 08:42:50;;;;;;;2.55;1.15;;;;;;;-144.01;100.00;62166.59;5077182;28;20383;-46
2021/01/26 08:45:24;;;;;;;1.50;0.90;;;;;;;-144.01;100.00;62166.59;5057110;28;20053;-44
2021/01/26 08:48:23;;;;;;;1.20;0.63;;;;;;;-144.01;100.00;62166.59;5057016;28;20041;-46
2021/01/26 08:50:53;;;;;;;1.40;0.70;;;;;;;-144.01;100.00;62166.59;5069122;28;20378;-45
2021/01/26 08:53:21;;;;;;;1.75;1.00;;;;;;;-144.01;100.00;62166.59;5077154;28;20060;-58
2021/01/26 08:55:51;;;;;;;1.67;1.20;;;;;;;-144.01;100.00;62166.59;5077196;28;20048;-44
2021/01/26 08:58:42;;;;;;;2.67;1.40;;;;;;;-144.01;100.00;62166.59;5075888;28;20056;-57
2021/01/26 09:01:29;;;;;;;2.72;1.60;;;;;;;-144.01;100.00;62166.59;5076712;28;20044;-48
2021/01/26 09:04:12;;;;;;;1.90;1.17;;;;;;;-144.01;100.00;62166.59;5076702;28;20379;-44
2021/01/26 09:06:42;;;;;;;1.70;1.15;;;;;;;-144.01;100.00;62166.59;5076799;28;20355;-56
2021/01/26 09:09:18;;;;;;;1.70;1.27;;;;;;;-144.01;100.00;62166.59;5076706;28;20486;-45
2021/01/26 09:11:45;;;;;;;2.78;1.67;;;;;;;-144.01;100.00;62166.59;5076484;28;20375;-48
2021/01/26 09:14:21;;;;;;;2.42;1.00;;;;;;;-144.01;100.00;62166.59;5076250;28;20052;-45
2021/01/26 09:17:08;;;;;;;2.42;1.17;;;;;;;-144.01;100.00;62166.59;5075441;28;20044;-47
2021/01/26 09:19:46;;;;;;;2.28;1.40;;;;;;;-144.01;100.00;62166.59;5076343;28;20436;-45
2021/01/26 09:22:22;;;;;;;2.85;1.58;;;;;;;-144.01;100.00;62166.59;5076371;28;20059;-44
2021/01/26 09:24:53;;;;;;;2.47;1.55;;;;;;;-144.01;100.00;62166.59;5075495;28;20059;-43
2021/01/26 09:27:25;;;;;;;2.05;1.40;;;;;;;-144.01;100.00;62166.59;5074530;28;20063;-44
2021/01/26 09:30:16;;;;;;;2.03;1.20;;;;;;;-144.01;100.00;62166.59;5076417;28;20055;-47
2021/01/26 09:32:58;;;;;;;2.13;1.13;;;;;;;-144.01;100.00;62166.59;5076365;28;20583;-45
2021/01/26 09:35:35;;;;;;;173.70;94.40;;;;;;;-144.01;100.00;62166.59;5076399;28;20047;-45
2021/01/26 09:38:26;;;;;;;18.42;12.85;;;;;;;-144.01;100.00;62166.59;5075677;28;20051;-60
2021/01/26 09:40:58;;;;;;;1.73;1.17;;;;;;;-144.01;100.00;62166.59;5076163;28;20064;-44
2021/01/26 09:43:37;;;;;;;1.73;0.80;;;;;;;-144.01;100.00;62166.59;5075939;28;20059;-43
2021/01/26 09:46:13;;;;;;;2.10;0.80;;;;;;;-144.01;100.00;62166.59;5067204;28;20364;-46
2021/01/26 09:48:45;;;;;;;1.63;0.90;;;;;;;-144.01;100.00;62166.59;5065837;28;20048;-44
2021/01/26 09:51:36;;;;;;;2.95;0.98;;;;;;;-144.01;100.00;62166.59;5075084;28;20048;-45
2021/01/26 09:54:10;;;;;;;3.28;1.30;;;;;;;-144.01;100.00;62166.59;5075847;28;20045;-44
2021/01/26 09:56:38;;;;;;;;;;;;;;;-144.01;100.00;62166.59;5063327;28;20044;-45
2021/01/26 09:59:10;;;;;;;2.30;1.20;;;;;;;-144.01;100.00;62166.59;5068973;28;19912;-44
2021/01/26 10:01:40;;;;;;;2.38;1.48;;;;;;;-144.01;100.00;62166.59;5075943;28;20375;-43
2021/01/26 10:04:08;;;;;;;2.95;1.52;;;;;;;-144.01;100.00;62166.59;5074617;28;20051;-45
2021/01/26 10:06:36;;;;;;;1.80;1.20;;;;;;;-144.01;100.00;62166.59;5058044;28;20052;-45
2021/01/26 10:09:24;;;;;;;2.53;1.35;;;;;;;-144.01;100.00;62166.59;5074440;28;20048;-46
2021/01/26 10:11:53;;;;;;;2.33;1.17;;;;;;;-144.01;100.00;62166.59;5075235;28;20059;-47
2021/01/26 10:14:28;;;;;;;2.35;1.30;;;;;;;-144.01;100.00;62166.59;5075225;28;20044;-44
2021/01/26 10:16:57;;;;;;;1.98;1.30;;;;;;;-144.01;100.00;62166.59;5075288;28;20040;-44
2021/01/26 10:19:27;;;;;;;4.00;1.58;;;;;;;-144.01;100.00;62166.59;5064591;28;20044;-56
2021/01/26 10:22:03;;;;;;;2.38;1.50;;;;;;;-144.01;100.00;62166.59;5054474;28;20049;-56
2021/01/26 10:24:33;;;;;;;2.30;1.55;;;;;;;-144.01;100.00;62166.59;5055535;28;20359;-55
2021/01/26 10:27:36;;;;;;;1.80;1.45;;;;;;;-144.01;100.00;62166.59;5054302;28;20379;-43
2021/01/26 10:30:18;;;;;;;2.17;1.30;;;;;;;-144.01;100.00;62166.59;5050957;28;20447;-43
2021/01/26 10:32:50;;;;;;;2.27;1.60;;;;;;;-144.01;100.00;62166.59;5055444;28;20049;-45
2021/01/26 10:35:36;;;;;;;2.85;1.70;;;;;;;-144.01;100.00;62166.59;5055264;28;20760;-44
2021/01/26 10:38:26;;;;;;;3.17;2.08;;;;;;;-144.01;100.00;62166.59;5058462;28;20044;-43
2021/01/26 10:41:29;;;;;;;2.17;1.42;;;;;;;-144.01;100.00;62166.59;5076274;28;20056;-45
2021/01/26 10:44:14;;;;;;;4.60;1.60;;;;;;;-144.01;100.00;62166.59;5115316;28;20366;-44
2021/01/26 10:46:47;;;;;;;3.17;2.00;;;;;;;-144.01;100.00;62166.59;5115532;28;20491;-44
2021/01/26 10:49:30;;;;;;;3.28;1.52;;;;;;;-144.01;100.00;62166.59;5097715;28;20459;-45
2021/01/26 10:52:08;;;;;;;2.53;1.95;;;;;;;-144.01;100.00;62166.59;5088851;28;20371;-45
2021/01/26 10:54:36;;;;;;;4.35;1.73;;;;;;;-144.01;100.00;62166.59;5077392;28;20450;-45
2021/01/26 10:57:04;;;;;;;2.15;1.65;;;;;;;-144.01;100.00;62166.59;5095126;28;20044;-44
2021/01/26 10:59:31;;;;;;;2.28;1.60;;;;;;;-144.01;100.00;62166.59;5110508;28;20048;-51
2021/01/26 11:01:58;;;;;;;1.90;1.50;;;;;;;-144.01;100.00;62166.59;5115501;28;20055;-43
2021/01/26 11:04:27;;;;;;;2.72;1.70;;;;;;;-144.01;100.00;62166.59;5115635;28;20366;-57
2021/01/26 11:06:54;;;;;;;3.63;1.55;;;;;;;-144.01;100.00;62166.59;5115422;28;20047;-45
2021/01/26 11:09:21;;;;;;;2.90;2.42;;;;;;;-144.01;100.00;62166.59;5115223;28;20464;-45
2021/01/26 11:11:50;;;;;;;3.92;2.67;;;;;;;-144.01;100.00;62166.59;5115457;28;20064;-44
2021/01/26 11:14:17;;;;;;;3.65;2.55;;;;;;;-144.01;100.00;62166.59;5111356;28;20048;-44
2021/01/26 11:16:44;;;;;;;2.92;1.95;;;;;;;-144.01;100.00;62166.59;5115392;28;20047;-44
2021/01/26 11:19:12;;;;;;;3.38;2.00;;;;;;;-144.01;100.00;62166.59;5115199;28;20052;-54
2021/01/26 11:21:39;;;;;;;2.97;2.33;;;;;;;-144.01;100.00;62166.59;5115479;28;20841;-45
2021/01/26 11:24:10;;;;;;;2.50;1.90;;;;;;;-144.01;100.00;62166.59;5115212;28;20058;-54
2021/01/26 11:26:37;;;;;;;2.60;2.08;;;;;;;-144.01;100.00;62166.59;5099476;28;20047;-56
2021/01/26 11:29:04;;;;;;;3.25;2.15;;;;;;;-144.01;100.00;62166.59;5109381;28;20389;-56
2021/01/26 11:31:31;;;;;;;3.05;2.00;;;;;;;-144.01;100.00;62166.59;5119388;28;20055;-48
2021/01/26 11:33:58;;;;;;;3.90;1.98;;;;;;;-144.01;100.00;62166.59;5119159;28;20052;-55
2021/01/26 11:36:26;;;;;;;2.75;1.70;;;;;;;-144.01;100.00;62166.59;5119186;28;20035;-44
2021/01/26 11:38:53;;;;;;;2.83;1.85;;;;;;;-144.01;100.00;62166.59;5114585;28;20056;-45
2021/01/26 11:41:20;;;;;;;2.80;1.83;;;;;;;-144.01;100.00;62166.59;5094309;28;20072;-50
2021/01/26 11:43:47;;;;;;;3.47;2.35;;;;;;;-144.01;100.00;62166.59;5100126;28;20052;-45
2021/01/26 11:46:14;;;;;;;4.00;2.67;;;;;;;-144.01;100.00;62166.59;5098522;28;20407;-56